createdAt,value
2019-03-28T00:00:41.756Z,19.9
2019-03-28T00:02:43.163Z,18.7
2019-03-28T00:04:44.489Z,20.6
2019-03-28T00:06:45.759Z,20.9
2019-03-28T00:08:47.142Z,20.1
2019-03-28T00:10:48.522Z,20.4
2019-03-28T00:12:49.906Z,21.2
2019-03-28T00:14:51.280Z,22
2019-03-28T00:16:52.593Z,25.5
2019-03-28T00:18:54.018Z,22.3
2019-03-28T00:20:55.344Z,20.4
2019-03-28T00:22:56.768Z,18.3
2019-03-28T00:24:58.055Z,22.4
2019-03-28T00:26:59.475Z,21.7
2019-03-28T00:31:02.267Z,18.8
2019-03-28T00:33:03.588Z,23.1
2019-03-28T00:35:04.922Z,22.8
2019-03-28T00:37:07.696Z,24.2
2019-03-28T00:39:10.130Z,22.4
2019-03-28T00:41:11.468Z,24.5
2019-03-28T00:43:12.862Z,25.2
2019-03-28T00:45:14.294Z,21.7
2019-03-28T00:47:15.709Z,22.6
2019-03-28T00:49:17.129Z,21.3
2019-03-28T00:51:18.554Z,19.1
2019-03-28T00:53:19.978Z,21.8
2019-03-28T00:55:21.314Z,24.7
2019-03-28T00:57:22.741Z,25.9
2019-03-28T00:59:24.315Z,26.5
2019-03-28T01:01:25.790Z,26.8
2019-03-28T01:03:27.117Z,24.2
2019-03-28T01:05:28.366Z,22.5
2019-03-28T01:07:29.704Z,23.4
2019-03-28T01:09:31.379Z,19
2019-03-28T01:11:32.918Z,23.2
2019-03-28T01:13:34.348Z,27.2
2019-03-28T01:15:35.672Z,23.7
2019-03-28T01:17:36.914Z,20.2
2019-03-28T01:19:38.342Z,19.8
2019-03-28T01:21:39.760Z,24.4
2019-03-28T01:23:41.187Z,24.4
2019-03-28T01:25:42.613Z,19.2
2019-03-28T01:27:44.041Z,24.7
2019-03-28T01:29:45.471Z,17.3
2019-03-28T01:31:46.897Z,24.3
2019-03-28T01:33:48.222Z,27.1
2019-03-28T01:35:49.555Z,19.2
2019-03-28T01:37:50.970Z,23.1
2019-03-28T01:39:52.397Z,21.6
2019-03-28T01:41:53.818Z,18.5
2019-03-28T01:43:55.242Z,20.1
2019-03-28T01:45:56.666Z,19.8
2019-03-28T01:47:58.092Z,19.8
2019-03-28T01:49:59.421Z,22
2019-03-28T01:52:00.843Z,19.8
2019-03-28T01:54:02.171Z,20.9
2019-03-28T01:56:03.614Z,17.9
2019-03-28T01:58:05.279Z,22.1
2019-03-28T02:00:06.847Z,16.8
2019-03-28T02:02:08.254Z,22.7
2019-03-28T02:04:09.584Z,18.6
2019-03-28T02:06:11.005Z,23.2
2019-03-28T02:08:12.425Z,22
2019-03-28T02:10:13.817Z,21.5
2019-03-28T02:12:15.231Z,16.6
2019-03-28T02:14:16.560Z,21.4
2019-03-28T02:16:17.989Z,22.6
2019-03-28T02:18:19.405Z,25.3
2019-03-28T02:20:20.828Z,24.3
2019-03-28T02:22:22.074Z,19.7
2019-03-28T02:24:23.460Z,18.7
2019-03-28T02:26:24.817Z,21.5
2019-03-28T02:28:26.237Z,19.8
2019-03-28T02:30:27.607Z,20
2019-03-28T02:32:28.994Z,21.7
2019-03-28T02:34:30.364Z,17.8
2019-03-28T02:36:31.790Z,20
2019-03-28T02:38:33.198Z,21.8
2019-03-28T02:40:34.625Z,18.8
2019-03-28T02:42:36.043Z,22.6
2019-03-28T02:44:37.585Z,19.1
2019-03-28T02:46:39.217Z,21.8
2019-03-28T02:48:40.627Z,23.4
2019-03-28T02:50:42.059Z,19.9
2019-03-28T02:52:43.443Z,21.4
2019-03-28T02:54:44.858Z,18.6
2019-03-28T02:56:46.282Z,21.8
2019-03-28T02:58:47.531Z,22.5
2019-03-28T03:00:48.904Z,21.9
2019-03-28T03:02:50.325Z,21.6
2019-03-28T03:04:51.723Z,19.9
2019-03-28T03:06:53.147Z,19.7
2019-03-28T03:08:54.484Z,21.7
2019-03-28T03:10:55.865Z,23.9
2019-03-28T03:12:57.286Z,21.9
2019-03-28T03:14:58.685Z,20.5
2019-03-28T03:17:00.031Z,21.5
2019-03-28T03:19:01.395Z,22.6
2019-03-28T03:21:02.770Z,22.8
2019-03-28T03:23:04.156Z,21
2019-03-28T03:25:05.543Z,23
2019-03-28T03:27:06.974Z,22
2019-03-28T03:29:08.360Z,21
2019-03-28T03:31:09.692Z,16.3
2019-03-28T03:33:11.147Z,17.1
2019-03-28T03:35:12.557Z,19.2
2019-03-28T03:37:13.974Z,23.3
2019-03-28T03:39:15.395Z,19.2
2019-03-28T03:41:16.806Z,20.2
2019-03-28T03:43:18.216Z,21.6
2019-03-28T03:45:19.569Z,20.8
2019-03-28T03:47:21.006Z,22.2
2019-03-28T03:49:22.412Z,20.9
2019-03-28T03:51:23.837Z,22.2
2019-03-28T03:53:25.265Z,24.8
2019-03-28T03:55:26.691Z,24.8
2019-03-28T03:57:28.111Z,21.5
2019-03-28T03:59:29.459Z,27.1
2019-03-28T04:01:30.821Z,26.8
2019-03-28T04:03:32.202Z,23
2019-03-28T04:05:33.586Z,22.6
2019-03-28T04:07:34.968Z,16
2019-03-28T04:09:36.363Z,22.7
2019-03-28T04:11:37.726Z,21.5
2019-03-28T04:13:39.112Z,23.3
2019-03-28T04:15:40.443Z,23.7
2019-03-28T04:17:41.867Z,21.3
2019-03-28T04:19:43.202Z,18.5
2019-03-28T04:21:44.627Z,19.3
2019-03-28T04:23:45.954Z,21.2
2019-03-28T04:25:47.280Z,18.7
2019-03-28T04:27:48.674Z,18.5
2019-03-28T04:29:50.100Z,20.9
2019-03-28T04:31:51.432Z,21.6
2019-03-28T04:33:52.860Z,21.5
2019-03-28T04:35:54.245Z,21
2019-03-28T04:37:55.676Z,18.8
2019-03-28T04:39:57.081Z,20.5
2019-03-28T04:41:58.426Z,22
2019-03-28T04:43:59.851Z,23.8
2019-03-28T04:46:01.230Z,18.9
2019-03-28T04:48:02.597Z,21.1
2019-03-28T04:50:03.973Z,17.6
2019-03-28T04:52:05.302Z,19.1
2019-03-28T04:54:09.497Z,18.5
2019-03-28T04:56:11.260Z,17.6
2019-03-28T04:58:12.645Z,16.8
2019-03-28T05:00:14.022Z,22.6
2019-03-28T05:02:15.351Z,17.2
2019-03-28T05:04:16.687Z,22.9
2019-03-28T05:06:18.078Z,21.6
2019-03-28T05:08:19.520Z,20.7
2019-03-28T05:10:20.924Z,20.2
2019-03-28T05:12:22.364Z,19.6
2019-03-28T05:14:23.776Z,20
2019-03-28T05:16:25.204Z,20
2019-03-28T05:18:26.630Z,18.9
2019-03-28T05:20:28.058Z,17.3
2019-03-28T05:22:29.426Z,16.1
2019-03-28T05:24:30.856Z,17
2019-03-28T05:26:32.282Z,15.9
2019-03-28T05:28:33.703Z,16.1
2019-03-28T05:30:34.963Z,15.9
2019-03-28T05:32:36.341Z,19.9
2019-03-28T05:34:37.711Z,20.8
2019-03-28T05:36:39.185Z,14.3
2019-03-28T05:38:40.529Z,13.7
2019-03-28T05:40:41.881Z,18.1
2019-03-28T05:42:43.232Z,28.3
2019-03-28T05:44:44.658Z,24.8
2019-03-28T05:46:46.063Z,18.3
2019-03-28T05:48:47.495Z,13.9
2019-03-28T05:50:48.844Z,17.9
2019-03-28T05:52:50.254Z,24.6
2019-03-28T05:54:51.527Z,23.5
2019-03-28T05:56:52.861Z,20.9
2019-03-28T05:58:54.423Z,15.6
2019-03-28T06:00:55.737Z,16
2019-03-28T06:02:57.113Z,20.8
2019-03-28T06:04:58.476Z,22.6
2019-03-28T06:06:59.821Z,22.2
2019-03-28T06:09:08.612Z,30.1
2019-03-28T06:11:11.976Z,29.7
2019-03-28T06:13:13.724Z,28.5
2019-03-28T06:15:15.146Z,26.9
2019-03-28T06:17:16.529Z,19.6
2019-03-28T06:19:17.946Z,26.9
2019-03-28T06:21:19.359Z,19.3
2019-03-28T06:23:20.680Z,30.6
2019-03-28T06:25:22.773Z,22.5
2019-03-28T06:27:24.558Z,33.1
2019-03-28T06:29:26.097Z,35.4
2019-03-28T06:31:27.571Z,39.6
2019-03-28T06:33:28.904Z,30.1
2019-03-28T06:35:30.290Z,33.3
2019-03-28T06:37:32.367Z,31.9
2019-03-28T06:39:36.326Z,26.5
2019-03-28T06:41:37.991Z,22.2
2019-03-28T06:43:41.948Z,27.5
2019-03-28T06:45:43.522Z,36.4
2019-03-28T06:47:44.955Z,39
2019-03-28T06:49:46.382Z,42.8
2019-03-28T06:51:47.816Z,38.7
2019-03-28T06:53:49.234Z,35.1
2019-03-28T06:55:51.370Z,30.1
2019-03-28T06:57:52.992Z,26
2019-03-28T06:59:54.414Z,25.3
2019-03-28T07:01:55.795Z,26.5
2019-03-28T07:03:57.069Z,25.3
2019-03-28T07:05:58.490Z,30.5
2019-03-28T07:07:59.834Z,26
2019-03-28T07:10:02.496Z,29.9
2019-03-28T07:12:04.321Z,46.1
2019-03-28T07:14:05.711Z,35.2
2019-03-28T07:16:07.139Z,44.5
2019-03-28T07:18:08.574Z,34.1
2019-03-28T07:20:09.994Z,40.5
2019-03-28T07:22:11.420Z,30
2019-03-28T07:24:12.853Z,32.8
2019-03-28T07:26:14.278Z,35
2019-03-28T07:28:15.615Z,33
2019-03-28T07:30:17.046Z,34.4
2019-03-28T07:32:18.476Z,46.6
2019-03-28T07:34:19.904Z,49.3
2019-03-28T07:36:21.454Z,37.4
2019-03-28T07:38:22.861Z,33.3
2019-03-28T07:40:24.196Z,41.8
2019-03-28T07:42:25.629Z,37.1
2019-03-28T07:44:27.015Z,38.4
2019-03-28T07:46:28.396Z,39.4
2019-03-28T07:48:29.827Z,41.2
2019-03-28T07:50:33.415Z,39
2019-03-28T07:52:35.002Z,37
2019-03-28T07:54:36.418Z,38.9
2019-03-28T07:56:37.766Z,46.5
2019-03-28T07:58:39.096Z,46.2
2019-03-28T08:00:40.435Z,39
2019-03-28T08:02:41.841Z,40
2019-03-28T08:04:43.260Z,39
2019-03-28T08:06:49.870Z,47.6
2019-03-28T08:08:52.580Z,52.1
2019-03-28T08:10:54.012Z,41.3
2019-03-28T08:12:55.446Z,49.8
2019-03-28T08:14:56.877Z,51.6
2019-03-28T08:16:58.217Z,54.1
2019-03-28T08:18:59.641Z,39
2019-03-28T08:21:01.116Z,41.5
2019-03-28T08:23:02.586Z,45.4
2019-03-28T08:25:06.981Z,54.8
2019-03-28T08:27:13.273Z,47.8
2019-03-28T08:29:14.772Z,50.1
2019-03-28T08:31:16.170Z,51.7
2019-03-28T08:33:17.528Z,40.2
2019-03-28T08:35:18.908Z,47.9
2019-03-28T08:37:20.249Z,43.3
2019-03-28T08:39:21.681Z,47.3
2019-03-28T08:41:23.062Z,40.1
2019-03-28T08:43:24.433Z,45.7
2019-03-28T08:45:25.820Z,45
2019-03-28T08:47:27.159Z,45.1
2019-03-28T08:49:28.574Z,39.5
2019-03-28T08:51:30.012Z,39.5
2019-03-28T08:53:31.446Z,33
2019-03-28T08:55:32.891Z,32.6
2019-03-28T08:57:34.287Z,31.2
2019-03-28T08:59:35.714Z,28.9
2019-03-28T09:01:37.146Z,28.1
2019-03-28T09:03:38.710Z,28.9
2019-03-28T09:05:40.064Z,46.2
2019-03-28T09:07:41.496Z,36.3
2019-03-28T09:09:42.934Z,34
2019-03-28T09:11:44.367Z,24.6
2019-03-28T09:13:45.721Z,24.8
2019-03-28T09:15:47.143Z,18.7
2019-03-28T09:17:48.584Z,21.1
2019-03-28T09:19:50.009Z,24.2
2019-03-28T09:21:51.403Z,20.7
2019-03-28T09:23:52.736Z,32.4
2019-03-28T09:25:54.113Z,39.6
2019-03-28T09:27:55.548Z,24.8
2019-03-28T09:29:56.988Z,25.6
2019-03-28T09:31:58.354Z,25.4
2019-03-28T09:33:59.796Z,23.5
2019-03-28T09:36:01.231Z,23.6
2019-03-28T09:38:02.670Z,23
2019-03-28T09:40:04.009Z,28.6
2019-03-28T09:42:05.394Z,22.2
2019-03-28T09:44:06.833Z,20.3
2019-03-28T09:46:08.171Z,25.2
2019-03-28T09:48:11.565Z,20.9
2019-03-28T09:50:13.550Z,22.8
2019-03-28T09:52:14.995Z,20.3
2019-03-28T09:54:16.422Z,20.6
2019-03-28T09:56:17.762Z,18.8
2019-03-28T09:58:19.110Z,17.4
2019-03-28T10:00:20.531Z,23.1
2019-03-28T10:02:21.934Z,23.1
2019-03-28T10:04:23.306Z,23.2
2019-03-28T10:06:24.579Z,22.2
2019-03-28T10:08:26.009Z,24.2
2019-03-28T10:10:27.449Z,19.1
2019-03-28T10:12:28.786Z,21.4
2019-03-28T10:14:30.130Z,22.2
2019-03-28T10:16:31.474Z,23.8
2019-03-28T10:18:32.853Z,23.6
2019-03-28T10:20:34.299Z,25.3
2019-03-28T10:22:35.727Z,23.5
2019-03-28T10:24:37.102Z,22.5
2019-03-28T10:26:39.421Z,26.5
2019-03-28T10:28:40.989Z,21.8
2019-03-28T10:30:42.357Z,20.3
2019-03-28T10:32:43.799Z,19.7
2019-03-28T10:34:45.237Z,19.4
2019-03-28T10:36:46.656Z,19.6
2019-03-28T10:38:48.083Z,22
2019-03-28T10:40:49.431Z,20.5
2019-03-28T10:42:50.814Z,23.1
2019-03-28T10:44:52.250Z,17.8
2019-03-28T10:46:53.692Z,17.6
2019-03-28T10:48:55.129Z,18.2
2019-03-28T10:50:56.566Z,16.8
2019-03-28T10:52:58.113Z,16.9
2019-03-28T10:54:59.529Z,15.4
2019-03-28T10:57:12.850Z,15.5
2019-03-28T10:59:29.983Z,16.3
2019-03-28T11:01:47.367Z,15.2
2019-03-28T11:03:52.055Z,17.4
2019-03-28T11:05:53.339Z,15.8
2019-03-28T11:07:54.737Z,13.8
2019-03-28T11:09:56.115Z,15.1
2019-03-28T11:11:57.521Z,15.5
2019-03-28T11:13:58.886Z,16.2
2019-03-28T11:16:00.277Z,17.6
2019-03-28T11:18:01.833Z,19.6
2019-03-28T11:20:03.236Z,25.2
2019-03-28T11:22:04.678Z,22.1
2019-03-28T11:24:06.116Z,27.5
2019-03-28T11:26:07.556Z,22.6
2019-03-28T11:28:09.018Z,22.9
2019-03-28T11:30:10.529Z,24
2019-03-28T11:32:11.974Z,23.8
2019-03-28T11:34:13.564Z,20.1
2019-03-28T11:36:16.153Z,20.5
2019-03-28T11:38:17.536Z,17.4
2019-03-28T11:40:18.992Z,20.2
2019-03-28T11:42:20.343Z,20.9
2019-03-28T11:44:21.807Z,18.8
2019-03-28T11:46:23.215Z,20.5
2019-03-28T11:48:24.645Z,21.8
2019-03-28T11:50:26.084Z,20.6
2019-03-28T11:52:27.434Z,18.7
2019-03-28T11:54:28.876Z,18.8
2019-03-28T11:56:30.331Z,20.1
2019-03-28T11:58:31.714Z,21.1
2019-03-28T12:00:33.056Z,21.5
2019-03-28T12:02:34.479Z,21.4
2019-03-28T12:04:38.579Z,20.6
2019-03-28T12:06:40.261Z,17.6
2019-03-28T12:08:41.711Z,19
2019-03-28T12:10:43.148Z,16.7
2019-03-28T12:12:44.537Z,16.7
2019-03-28T12:14:45.918Z,18.9
2019-03-28T12:16:48.019Z,17.9
2019-03-28T12:19:01.886Z,16
2019-03-28T12:21:04.152Z,19
2019-03-28T12:23:24.430Z,17.7
2019-03-28T12:25:30.619Z,16.9
2019-03-28T12:27:33.890Z,16.3
2019-03-28T12:29:39.185Z,15.5
2019-03-28T12:31:45.396Z,16.4
2019-03-28T12:33:46.836Z,13.1
2019-03-28T12:35:48.248Z,18
2019-03-28T12:37:49.633Z,18.6
2019-03-28T12:39:50.999Z,14.1
2019-03-28T12:41:53.019Z,16.8
2019-03-28T12:43:54.845Z,11.2
2019-03-28T12:45:56.182Z,12.5
2019-03-28T12:47:57.614Z,13.8
2019-03-28T12:49:59.048Z,14.6
2019-03-28T12:52:00.494Z,13.3
2019-03-28T12:54:02.585Z,16.3
2019-03-28T12:56:04.165Z,14.6
2019-03-28T12:58:05.550Z,14.3
2019-03-28T13:00:07.122Z,14.4
2019-03-28T13:02:08.526Z,16.4
2019-03-28T13:04:09.863Z,14.7
2019-03-28T13:06:11.202Z,14
2019-03-28T13:08:12.580Z,14.8
2019-03-28T13:10:13.984Z,13.5
2019-03-28T13:12:15.423Z,12.8
2019-03-28T13:14:16.807Z,21.5
2019-03-28T13:16:18.183Z,16.6
2019-03-28T13:18:19.537Z,19.9
2019-03-28T13:20:22.278Z,13.9
2019-03-28T13:22:23.899Z,15.3
2019-03-28T13:24:25.170Z,11.7
2019-03-28T13:26:26.550Z,18
2019-03-28T13:28:28.517Z,13.2
2019-03-28T13:30:30.293Z,18.1
2019-03-28T13:32:41.458Z,12.7
2019-03-28T13:34:43.829Z,18.9
2019-03-28T13:36:45.270Z,19.2
2019-03-28T13:38:46.718Z,20.7
2019-03-28T13:40:48.159Z,24.1
2019-03-28T13:42:52.689Z,20.5
2019-03-28T13:44:54.618Z,21.1
2019-03-28T13:46:56.055Z,25
2019-03-28T13:48:57.400Z,21.7
2019-03-28T13:50:58.847Z,24.2
2019-03-28T13:53:00.286Z,24.9
2019-03-28T13:55:01.732Z,25.2
2019-03-28T13:57:03.175Z,23.5
2019-03-28T13:59:05.702Z,24.1
2019-03-28T14:01:07.367Z,19.8
2019-03-28T14:03:08.730Z,20
2019-03-28T14:05:12.889Z,22.2
2019-03-28T14:07:17.200Z,20.3
2019-03-28T14:09:19.006Z,21.8
2019-03-28T14:11:20.369Z,20.8
2019-03-28T14:13:21.844Z,18.8
2019-03-28T14:15:23.254Z,16.2
2019-03-28T14:17:24.618Z,16.5
2019-03-28T14:19:25.997Z,15.4
2019-03-28T14:21:27.388Z,16.6
2019-03-28T14:23:28.773Z,17.8
2019-03-28T14:25:30.154Z,19.9
2019-03-28T14:27:31.502Z,14.6
2019-03-28T14:29:32.921Z,15.5
2019-03-28T14:31:34.305Z,18.7
2019-03-28T14:33:35.668Z,16.1
2019-03-28T14:35:38.387Z,13.6
2019-03-28T14:37:40.784Z,16.3
2019-03-28T14:39:42.371Z,14.7
2019-03-28T14:41:46.198Z,12.5
2019-03-28T14:43:48.075Z,13.2
2019-03-28T14:45:49.512Z,14.2
2019-03-28T14:47:50.956Z,13.7
2019-03-28T14:49:52.509Z,13.3
2019-03-28T14:51:53.930Z,14.2
2019-03-28T14:53:55.849Z,12.8
2019-03-28T14:55:57.807Z,13.3
2019-03-28T14:57:59.360Z,13.5
2019-03-28T15:00:00.798Z,17.1
2019-03-28T15:02:02.236Z,17.1
2019-03-28T15:04:03.709Z,15
2019-03-28T15:06:05.118Z,18
2019-03-28T15:08:06.556Z,16
2019-03-28T15:10:07.935Z,17.6
2019-03-28T15:12:09.327Z,16.2
2019-03-28T15:14:10.763Z,13.7
2019-03-28T15:16:12.161Z,12.3
2019-03-28T15:18:13.535Z,13.4
2019-03-28T15:20:14.976Z,14.2
2019-03-28T15:22:16.414Z,15.6
2019-03-28T15:24:17.833Z,16
2019-03-28T15:26:19.243Z,13.4
2019-03-28T15:28:20.604Z,15.9
2019-03-28T15:30:21.985Z,21.5
2019-03-28T15:32:23.413Z,32.5
2019-03-28T15:34:24.852Z,16
2019-03-28T15:36:27.329Z,15.4
2019-03-28T15:38:31.234Z,23.4
2019-03-28T15:40:40.053Z,18.2
2019-03-28T15:42:41.391Z,13.9
2019-03-28T15:44:42.821Z,13.2
2019-03-28T15:46:44.187Z,14
2019-03-28T15:48:45.531Z,13.5
2019-03-28T15:50:46.889Z,13
2019-03-28T15:52:48.323Z,12.4
2019-03-28T15:54:49.687Z,12.7
2019-03-28T15:56:51.132Z,14.9
2019-03-28T15:58:52.577Z,13.2
2019-03-28T16:00:53.987Z,11.5
2019-03-28T16:02:55.419Z,11.7
2019-03-28T16:04:56.866Z,11.5
2019-03-28T16:06:58.195Z,10.8
2019-03-28T16:08:59.581Z,12.2
2019-03-28T16:11:01.020Z,12.2
2019-03-28T16:13:02.544Z,9.9
2019-03-28T16:15:04.006Z,11.1
2019-03-28T16:17:05.433Z,10.9
2019-03-28T16:19:06.877Z,11.3
2019-03-28T16:21:08.283Z,10.4
2019-03-28T16:23:09.623Z,9.9
2019-03-28T16:25:11.062Z,9.7
2019-03-28T16:27:12.500Z,10.2
2019-03-28T16:29:13.840Z,8.5
2019-03-28T16:31:15.282Z,10.2
2019-03-28T16:33:16.639Z,9.5
2019-03-28T16:35:21.099Z,9.9
2019-03-28T16:37:22.822Z,8.5
2019-03-28T16:39:24.271Z,10.8
2019-03-28T16:41:25.709Z,9.7
2019-03-28T16:43:27.161Z,10
2019-03-28T16:45:28.587Z,12.7
2019-03-28T16:47:29.936Z,12.4
2019-03-28T16:49:31.294Z,11.2
2019-03-28T16:51:32.743Z,11.5
2019-03-28T16:53:34.185Z,11.3
2019-03-28T16:55:35.588Z,45.9
2019-03-28T16:57:37.025Z,62.4
2019-03-28T16:59:38.474Z,23.3
2019-03-28T17:01:39.913Z,22.3
2019-03-28T17:03:41.354Z,18.4
2019-03-28T17:05:42.793Z,17.6
2019-03-28T17:07:44.145Z,14.1
2019-03-28T17:09:45.580Z,11.1
2019-03-28T17:11:47.002Z,9
2019-03-28T17:13:48.412Z,9.6
2019-03-28T17:15:50.989Z,11.1
2019-03-28T17:17:52.793Z,10.2
2019-03-28T17:19:54.135Z,9.9
2019-03-28T17:21:55.473Z,11.8
2019-03-28T17:23:56.854Z,9
2019-03-28T17:25:58.203Z,10.1
2019-03-28T17:27:59.627Z,9.6
2019-03-28T17:30:01.062Z,8.7
2019-03-28T17:32:02.491Z,8.8
2019-03-28T17:34:03.933Z,10.3
2019-03-28T17:36:05.295Z,9.2
2019-03-28T17:38:06.723Z,7.6
2019-03-28T17:40:08.166Z,9.5
2019-03-28T17:42:09.602Z,8.4
2019-03-28T17:44:14.124Z,11.1
2019-03-28T17:46:16.184Z,11.3
2019-03-28T17:48:17.538Z,13
2019-03-28T17:50:18.963Z,11.4
2019-03-28T17:52:20.400Z,10.8
2019-03-28T17:54:21.743Z,10.2
2019-03-28T17:56:23.182Z,8.5
2019-03-28T17:58:24.579Z,10.1
2019-03-28T18:00:27.904Z,11.6
2019-03-28T18:02:29.759Z,13.2
2019-03-28T18:04:31.205Z,12.6
2019-03-28T18:06:32.674Z,11.6
2019-03-28T18:08:34.081Z,9.7
2019-03-28T18:10:35.496Z,12.2
2019-03-28T18:12:36.876Z,10.4
2019-03-28T18:14:38.261Z,8
2019-03-28T18:16:39.635Z,13.9
2019-03-28T18:18:41.070Z,11.7
2019-03-28T18:20:42.506Z,9.2
2019-03-28T18:22:43.941Z,12.5
2019-03-28T18:24:45.286Z,15.1
2019-03-28T18:26:46.719Z,12.3
2019-03-28T18:28:48.121Z,11.6
2019-03-28T18:30:49.495Z,12.3
2019-03-28T18:32:50.934Z,10.7
2019-03-28T18:35:04.510Z,10.8
2019-03-28T18:37:08.990Z,10.8
2019-03-28T18:39:10.361Z,10.2
2019-03-28T18:41:12.119Z,11.5
2019-03-28T18:43:14.262Z,12.3
2019-03-28T18:45:15.551Z,10.3
2019-03-28T18:47:17.842Z,9.8
2019-03-28T18:49:19.392Z,12.6
2019-03-28T18:51:20.725Z,10.6
2019-03-28T18:53:22.171Z,11.7
2019-03-28T18:55:23.503Z,10.3
2019-03-28T18:57:24.948Z,11
2019-03-28T18:59:26.392Z,8.6
2019-03-28T19:01:27.817Z,8.9
2019-03-28T19:03:29.257Z,10.6
2019-03-28T19:05:30.698Z,9.6
2019-03-28T19:07:32.063Z,12.1
2019-03-28T19:09:33.499Z,11.7
2019-03-28T19:11:34.939Z,12.1
2019-03-28T19:13:36.370Z,10.4
2019-03-28T19:15:37.762Z,8.6
2019-03-28T19:17:39.196Z,12.2
2019-03-28T19:19:40.561Z,12.2
2019-03-28T19:21:41.946Z,12.4
2019-03-28T19:23:43.281Z,12.4
2019-03-28T19:25:46.795Z,13.1
2019-03-28T19:27:48.820Z,10.5
2019-03-28T19:29:50.239Z,12.9
2019-03-28T19:31:51.599Z,12.7
2019-03-28T19:33:53.041Z,11.8
2019-03-28T19:35:54.482Z,13.4
2019-03-28T19:37:55.906Z,14.2
2019-03-28T19:39:57.303Z,12.8
2019-03-28T19:41:58.649Z,13.2
2019-03-28T19:44:00.026Z,14.7
2019-03-28T19:46:01.406Z,13.3
2019-03-28T19:48:02.786Z,12.2
2019-03-28T19:50:04.175Z,12.4
2019-03-28T19:52:05.636Z,15.2
2019-03-28T19:54:07.046Z,15.3
2019-03-28T19:56:08.489Z,12.7
2019-03-28T19:58:11.891Z,20.1
2019-03-28T20:00:15.363Z,12.2
2019-03-28T20:02:16.783Z,18.5
2019-03-28T20:04:18.206Z,21.9
2019-03-28T20:06:22.227Z,21.2
2019-03-28T20:08:26.235Z,22.2
2019-03-28T20:10:27.883Z,17.6
2019-03-28T20:12:29.329Z,16.1
2019-03-28T20:14:30.668Z,16.4
2019-03-28T20:16:32.105Z,13.6
2019-03-28T20:18:33.496Z,14.6
2019-03-28T20:20:34.745Z,15.2
2019-03-28T20:22:36.175Z,15.4
2019-03-28T20:24:37.533Z,15.4
2019-03-28T20:26:38.917Z,21
2019-03-28T20:28:40.356Z,26
2019-03-28T20:30:41.798Z,17.2
2019-03-28T20:32:43.304Z,14.8
2019-03-28T20:34:44.574Z,15.8
2019-03-28T20:36:45.961Z,13.3
2019-03-28T20:38:50.016Z,12.8
2019-03-28T20:41:05.295Z,13.7
2019-03-28T20:43:08.010Z,13.5
2019-03-28T20:45:10.744Z,10.9
2019-03-28T20:47:12.750Z,17.4
2019-03-28T20:49:15.013Z,18.9
2019-03-28T20:51:16.449Z,14.7
2019-03-28T20:53:17.877Z,12.2
2019-03-28T20:55:19.264Z,12.7
2019-03-28T20:57:20.688Z,11.3
2019-03-28T20:59:22.096Z,16.8
2019-03-28T21:01:23.529Z,10.5
2019-03-28T21:03:24.783Z,13.6
2019-03-28T21:05:26.173Z,11.5
2019-03-28T21:07:27.582Z,9.7
2019-03-28T21:09:29.011Z,11.3
2019-03-28T21:11:30.346Z,11.4
2019-03-28T21:13:31.777Z,12.3
2019-03-28T21:15:33.214Z,12.7
2019-03-28T21:17:34.649Z,15.4
2019-03-28T21:19:36.078Z,12.8
2019-03-28T21:21:37.517Z,10.1
2019-03-28T21:23:39.060Z,13.2
2019-03-28T21:25:40.455Z,19.2
2019-03-28T21:27:41.883Z,17.4
2019-03-28T21:29:48.521Z,14
2019-03-28T21:31:52.049Z,14.4
2019-03-28T21:33:54.962Z,12.3
2019-03-28T21:35:56.568Z,9.9
2019-03-28T21:37:57.980Z,10.2
2019-03-28T21:39:59.355Z,9.3
2019-03-28T21:42:00.737Z,10
2019-03-28T21:44:02.114Z,11.3
2019-03-28T21:46:03.388Z,11.5
2019-03-28T21:48:04.822Z,13.8
2019-03-28T21:50:06.268Z,10.7
2019-03-28T21:52:07.806Z,11
2019-03-28T21:54:09.251Z,9.9
2019-03-28T21:56:13.920Z,12.5
2019-03-28T21:58:15.863Z,10
2019-03-28T22:00:17.202Z,10.2
2019-03-28T22:02:18.560Z,10.2
2019-03-28T22:04:19.934Z,13
2019-03-28T22:06:21.371Z,11.7
2019-03-28T22:08:22.808Z,12.3
2019-03-28T22:10:24.242Z,15.4
2019-03-28T22:12:25.667Z,14.3
2019-03-28T22:14:26.999Z,12.3
2019-03-28T22:16:28.337Z,12.3
2019-03-28T22:18:29.601Z,11.5
2019-03-28T22:20:30.978Z,10
2019-03-28T22:22:32.413Z,13.3
2019-03-28T22:24:33.752Z,12.3
2019-03-28T22:26:35.152Z,11.3
2019-03-28T22:28:37.932Z,15.7
2019-03-28T22:30:39.609Z,12.2
2019-03-28T22:32:40.942Z,12.6
2019-03-28T22:34:42.188Z,9.9
2019-03-28T22:36:56.424Z,12
2019-03-28T22:39:00.874Z,11.9
2019-03-28T22:41:02.234Z,11.1
2019-03-28T22:43:03.670Z,11.7
2019-03-28T22:45:05.121Z,11.8
2019-03-28T22:47:06.545Z,11.7
2019-03-28T22:49:07.970Z,11.5
2019-03-28T22:51:09.365Z,10.7
2019-03-28T22:53:10.781Z,12.1
2019-03-28T22:55:12.161Z,12.7
2019-03-28T22:57:13.514Z,11.8
2019-03-28T22:59:14.872Z,10.7
2019-03-28T23:01:16.258Z,11.4
2019-03-28T23:03:17.630Z,10.7
2019-03-28T23:05:18.917Z,10.7
2019-03-28T23:07:20.351Z,11.4
2019-03-28T23:09:21.627Z,11.7
2019-03-28T23:11:23.065Z,12.6
2019-03-28T23:13:24.496Z,9.4
2019-03-28T23:15:25.837Z,11.7
2019-03-28T23:17:27.265Z,11.2
2019-03-28T23:19:28.639Z,10.5
2019-03-28T23:21:30.089Z,8.4
2019-03-28T23:23:31.473Z,10
2019-03-28T23:25:32.819Z,9.7
2019-03-28T23:27:34.231Z,8.7
2019-03-28T23:29:36.168Z,6.9
2019-03-28T23:31:38.197Z,7.5
2019-03-28T23:33:39.630Z,7.7
2019-03-28T23:35:41.210Z,8.4
2019-03-28T23:37:42.570Z,8.9
2019-03-28T23:39:43.918Z,8.4
2019-03-28T23:41:45.256Z,12
2019-03-28T23:43:46.512Z,10.5
2019-03-28T23:45:47.864Z,9.7
2019-03-28T23:47:49.193Z,7.5
2019-03-28T23:49:50.523Z,11.4
2019-03-28T23:51:51.964Z,9.2
2019-03-28T23:53:53.403Z,10
2019-03-28T23:55:54.840Z,9.1
2019-03-28T23:57:56.091Z,9.8
2019-03-28T23:59:57.522Z,9.3
